createdAt,value
2022-11-15T00:00:01.928Z,4.41
2022-11-15T00:03:26.675Z,4.33
2022-11-15T00:06:50.190Z,4.34
2022-11-15T00:10:15.452Z,4.30
2022-11-15T00:13:38.585Z,4.20
2022-11-15T00:17:02.755Z,4.22
2022-11-15T00:20:28.199Z,4.34
2022-11-15T00:23:51.281Z,4.30
2022-11-15T00:27:14.385Z,4.39
2022-11-15T00:30:37.980Z,4.30
2022-11-15T00:34:00.441Z,4.24
2022-11-15T00:37:22.690Z,4.15
2022-11-15T00:40:49.482Z,4.27
2022-11-15T00:44:12.828Z,4.22
2022-11-15T00:47:36.548Z,4.27
2022-11-15T00:51:01.859Z,4.25
2022-11-15T00:54:26.662Z,4.31
2022-11-15T00:57:51.364Z,4.26
2022-11-15T01:01:16.858Z,4.33
2022-11-15T01:04:42.346Z,4.43
2022-11-15T01:08:07.631Z,4.38
2022-11-15T01:11:29.996Z,4.35
2022-11-15T01:14:55.080Z,4.38
2022-11-15T01:18:18.546Z,4.29
2022-11-15T01:21:43.825Z,4.22
2022-11-15T01:25:09.116Z,4.18
2022-11-15T01:28:33.021Z,4.21
2022-11-15T01:32:00.734Z,4.26
2022-11-15T01:35:24.946Z,4.29
2022-11-15T01:38:50.076Z,4.28
2022-11-15T01:42:18.614Z,4.33
2022-11-15T01:45:46.270Z,4.19
2022-11-15T01:49:18.290Z,4.30
2022-11-15T01:52:45.205Z,4.22
2022-11-15T01:56:09.879Z,4.20
2022-11-15T01:59:33.014Z,4.12
2022-11-15T02:02:59.106Z,4.13
2022-11-15T02:06:25.705Z,4.17
2022-11-15T02:09:52.435Z,4.21
2022-11-15T02:13:17.664Z,4.24
2022-11-15T02:17:01.836Z,4.28
2022-11-15T02:20:42.540Z,4.35
2022-11-15T02:24:20.451Z,4.32
2022-11-15T02:28:03.523Z,4.36
2022-11-15T02:31:38.179Z,4.41
2022-11-15T02:35:09.776Z,4.41
2022-11-15T02:38:37.944Z,4.34
2022-11-15T02:42:05.838Z,4.37
2022-11-15T02:45:33.819Z,4.55
2022-11-15T02:48:57.553Z,4.53
2022-11-15T02:52:25.430Z,4.54
2022-11-15T02:55:50.708Z,4.59
2022-11-15T02:59:21.404Z,4.58
2022-11-15T03:02:45.101Z,4.59
2022-11-15T03:06:17.795Z,4.50
2022-11-15T03:09:54.209Z,4.68
2022-11-15T03:13:25.139Z,4.78
2022-11-15T03:16:56.004Z,4.65
2022-11-15T03:20:22.693Z,4.48
2022-11-15T03:23:46.932Z,4.56
2022-11-15T03:27:13.436Z,4.56
2022-11-15T03:30:45.879Z,4.59
2022-11-15T03:34:11.743Z,4.52
2022-11-15T03:37:47.631Z,4.56
2022-11-15T03:41:34.004Z,4.69
2022-11-15T03:45:04.110Z,4.60
2022-11-15T03:48:33.149Z,4.67
2022-11-15T03:51:59.718Z,4.66
2022-11-15T03:55:22.886Z,4.51
2022-11-15T03:58:45.714Z,4.56
2022-11-15T04:02:10.458Z,4.75
2022-11-15T04:05:35.345Z,4.66
2022-11-15T04:08:59.295Z,4.72
2022-11-15T04:12:36.795Z,4.77
2022-11-15T04:16:01.616Z,4.66
2022-11-15T04:19:43.390Z,4.60
2022-11-15T04:23:28.868Z,4.66
2022-11-15T04:26:53.806Z,4.68
2022-11-15T04:30:19.572Z,4.67
2022-11-15T04:33:44.606Z,4.70
2022-11-15T04:37:16.653Z,4.68
2022-11-15T04:40:41.197Z,4.58
2022-11-15T04:44:06.273Z,4.55
2022-11-15T04:47:32.397Z,4.75
2022-11-15T04:50:59.140Z,4.57
2022-11-15T04:54:22.010Z,4.68
2022-11-15T04:57:46.830Z,4.74
2022-11-15T05:01:16.953Z,4.71
2022-11-15T05:04:42.442Z,4.68
2022-11-15T05:08:06.306Z,4.57
2022-11-15T05:11:30.231Z,4.64
2022-11-15T05:14:54.917Z,4.67
2022-11-15T05:18:23.479Z,4.72
2022-11-15T05:21:48.986Z,4.73
2022-11-15T05:25:12.996Z,4.82
2022-11-15T05:28:36.751Z,4.80
2022-11-15T05:32:04.033Z,4.90
2022-11-15T05:35:37.532Z,4.82
2022-11-15T05:39:00.980Z,4.88
2022-11-15T05:42:24.746Z,5.01
2022-11-15T05:45:49.540Z,4.95
2022-11-15T05:49:15.984Z,5.06
2022-11-15T05:52:39.162Z,4.97
2022-11-15T05:56:01.442Z,4.97
2022-11-15T05:59:23.409Z,5.10
2022-11-15T06:02:45.443Z,5.15
2022-11-15T06:06:06.351Z,5.08
2022-11-15T06:09:28.268Z,5.10
2022-11-15T06:12:56.958Z,5.05
2022-11-15T06:16:18.394Z,5.04
2022-11-15T06:19:40.769Z,5.11
2022-11-15T06:23:03.412Z,5.18
2022-11-15T06:26:25.301Z,5.34
2022-11-15T06:29:48.150Z,5.44
2022-11-15T06:33:10.504Z,5.33
2022-11-15T06:36:32.082Z,5.55
2022-11-15T06:39:53.066Z,5.50
2022-11-15T06:43:13.965Z,5.53
2022-11-15T06:46:35.196Z,5.62
2022-11-15T06:49:56.403Z,5.39
2022-11-15T06:53:18.029Z,5.50
2022-11-15T06:56:40.166Z,5.49
2022-11-15T07:00:03.300Z,5.43
2022-11-15T07:03:25.520Z,5.47
2022-11-15T07:06:49.594Z,5.49
2022-11-15T07:10:11.177Z,5.57
2022-11-15T07:13:37.415Z,5.53
2022-11-15T07:16:58.799Z,5.51
2022-11-15T07:20:22.309Z,5.57
2022-11-15T07:23:43.651Z,5.70
2022-11-15T07:27:05.024Z,5.85
2022-11-15T07:30:27.261Z,5.71
2022-11-15T07:33:48.610Z,5.81
2022-11-15T07:37:09.863Z,5.95
2022-11-15T07:40:32.983Z,5.85
2022-11-15T07:43:54.136Z,5.92
2022-11-15T07:47:15.799Z,6.02
2022-11-15T07:50:42.820Z,6.02
2022-11-15T07:54:04.139Z,6.17
2022-11-15T07:57:24.889Z,6.16
2022-11-15T08:00:46.110Z,6.18
2022-11-15T08:04:07.629Z,6.19
2022-11-15T08:07:33.169Z,6.28
2022-11-15T08:10:54.972Z,6.35
2022-11-15T08:14:16.989Z,6.32
2022-11-15T08:17:38.705Z,6.36
2022-11-15T08:21:03.095Z,6.35
2022-11-15T08:24:25.002Z,6.70
2022-11-15T08:27:46.453Z,6.80
2022-11-15T08:31:08.662Z,6.82
2022-11-15T08:34:29.889Z,6.67
2022-11-15T08:37:53.388Z,6.46
2022-11-15T08:41:26.157Z,6.40
2022-11-15T08:44:48.942Z,6.31
2022-11-15T08:48:11.322Z,6.23
2022-11-15T08:51:33.365Z,6.32
2022-11-15T08:54:55.488Z,6.51
2022-11-15T08:58:16.687Z,6.35
2022-11-15T09:01:40.137Z,6.17
2022-11-15T09:05:00.780Z,6.27
2022-11-15T09:12:03.202Z,6.37
2022-11-15T09:15:24.557Z,6.51
2022-11-15T09:18:45.683Z,6.53
2022-11-15T09:22:08.895Z,6.50
2022-11-15T09:25:31.182Z,6.67
2022-11-15T09:28:53.314Z,6.83
2022-11-15T09:32:14.477Z,7.08
2022-11-15T09:35:36.209Z,7.23
2022-11-15T09:38:59.265Z,7.05
2022-11-15T09:42:50.219Z,7.17
2022-11-15T09:46:19.811Z,7.19
2022-11-15T09:49:28.316Z,7.09
2022-11-15T09:52:31.371Z,7.00
2022-11-15T09:55:38.824Z,7.02
2022-11-15T09:58:47.203Z,7.03
2022-11-15T10:01:56.858Z,7.07
2022-11-15T10:05:01.627Z,6.86
2022-11-15T10:08:13.296Z,6.85
2022-11-15T10:11:38.567Z,6.90
2022-11-15T10:14:42.765Z,6.81
2022-11-15T10:18:05.324Z,6.77
2022-11-15T10:21:23.060Z,6.85
2022-11-15T10:24:31.104Z,6.81
2022-11-15T10:27:35.135Z,6.92
2022-11-15T10:30:43.468Z,6.95
2022-11-15T10:33:47.018Z,7.03
2022-11-15T10:36:58.053Z,6.91
2022-11-15T10:40:05.372Z,7.03
2022-11-15T10:43:12.456Z,7.03
2022-11-15T10:46:45.706Z,7.02
2022-11-15T10:49:55.255Z,7.18
2022-11-15T10:53:00.160Z,7.04
2022-11-15T10:56:07.957Z,7.20
2022-11-15T10:59:17.301Z,7.44
2022-11-15T11:02:30.189Z,7.40
2022-11-15T11:05:39.922Z,7.57
2022-11-15T11:09:02.087Z,7.57
2022-11-15T11:12:06.834Z,7.65
2022-11-15T11:15:13.182Z,7.62
2022-11-15T11:18:24.028Z,7.62
2022-11-15T11:21:38.437Z,7.78
2022-11-15T11:24:55.542Z,7.88
2022-11-15T11:27:58.978Z,8.10
2022-11-15T11:31:12.478Z,8.05
2022-11-15T11:34:34.568Z,7.99
2022-11-15T11:37:48.803Z,7.61
2022-11-15T11:40:56.020Z,7.68
2022-11-15T11:44:07.295Z,7.74
2022-11-15T11:47:11.915Z,7.71
2022-11-15T11:50:16.796Z,7.63
2022-11-15T11:53:26.716Z,7.47
2022-11-15T11:56:37.754Z,7.49
2022-11-15T11:59:44.781Z,7.50
2022-11-15T12:02:50.235Z,7.34
2022-11-15T12:06:06.602Z,7.23
2022-11-15T12:09:18.261Z,7.28
2022-11-15T12:12:33.953Z,7.38
2022-11-15T12:15:49.353Z,7.52
2022-11-15T12:18:55.381Z,7.58
2022-11-15T12:22:13.384Z,7.74
2022-11-15T12:25:19.859Z,7.55
2022-11-15T12:28:33.908Z,7.54
2022-11-15T12:31:38.015Z,7.70
2022-11-15T12:34:50.216Z,7.71
2022-11-15T12:37:56.279Z,7.74
2022-11-15T12:41:13.793Z,7.55
2022-11-15T12:44:32.002Z,7.47
2022-11-15T12:47:34.790Z,7.53
2022-11-15T12:50:56.377Z,7.52
2022-11-15T12:53:59.973Z,7.53
2022-11-15T12:57:08.995Z,7.60
2022-11-15T13:00:14.756Z,7.58
2022-11-15T13:03:20.309Z,7.37
2022-11-15T13:06:42.176Z,7.52
2022-11-15T13:09:48.334Z,7.55
2022-11-15T13:12:52.673Z,7.25
2022-11-15T13:16:02.920Z,7.21
2022-11-15T13:19:05.944Z,7.28
2022-11-15T13:22:31.232Z,7.36
2022-11-15T13:25:40.594Z,7.28
2022-11-15T13:28:49.715Z,7.27
2022-11-15T13:31:54.855Z,7.09
2022-11-15T13:35:02.628Z,7.06
2022-11-15T13:38:06.279Z,7.06
2022-11-15T13:41:20.364Z,7.07
2022-11-15T13:44:25.649Z,7.11
2022-11-15T13:47:31.062Z,7.06
2022-11-15T13:50:37.138Z,7.16
2022-11-15T13:53:44.341Z,7.17
2022-11-15T13:56:52.255Z,7.07
2022-11-15T14:00:01.220Z,7.06
2022-11-15T14:03:16.315Z,7.28
2022-11-15T14:06:22.782Z,7.14
2022-11-15T14:09:26.158Z,6.94
2022-11-15T14:12:31.545Z,6.86
2022-11-15T14:15:36.725Z,6.92
2022-11-15T14:18:45.684Z,6.91
2022-11-15T14:22:08.139Z,6.82
2022-11-15T14:25:14.395Z,6.70
2022-11-15T14:28:24.330Z,6.61
2022-11-15T14:31:28.153Z,6.70
2022-11-15T14:34:33.304Z,6.80
2022-11-15T14:37:40.215Z,6.79
2022-11-15T14:40:44.751Z,6.68
2022-11-15T14:43:49.015Z,6.60
2022-11-15T14:46:52.840Z,6.58
2022-11-15T14:49:56.281Z,6.58
2022-11-15T14:52:59.614Z,6.63
2022-11-15T14:56:03.461Z,6.64
2022-11-15T14:59:06.574Z,6.67
2022-11-15T15:02:24.007Z,6.64
2022-11-15T15:05:31.685Z,6.66
2022-11-15T15:08:35.262Z,6.58
2022-11-15T15:11:38.267Z,6.59
2022-11-15T15:14:42.865Z,6.57
2022-11-15T15:17:46.901Z,6.60
2022-11-15T15:20:58.122Z,6.62
2022-11-15T15:24:02.718Z,6.60
2022-11-15T15:27:06.890Z,6.67
2022-11-15T15:30:10.462Z,6.61
2022-11-15T15:33:15.227Z,6.57
2022-11-15T15:36:19.412Z,6.50
2022-11-15T15:39:22.494Z,6.48
2022-11-15T15:42:24.964Z,6.55
2022-11-15T15:45:29.122Z,6.53
2022-11-15T15:48:35.381Z,6.50
2022-11-15T15:51:40.204Z,6.46
2022-11-15T15:54:43.573Z,6.57
2022-11-15T15:57:48.573Z,6.50
2022-11-15T16:00:53.159Z,6.53
2022-11-15T16:03:56.620Z,6.52
2022-11-15T16:07:04.457Z,6.54
2022-11-15T16:10:26.773Z,6.58
2022-11-15T16:13:31.434Z,6.59
2022-11-15T16:16:37.860Z,6.54
2022-11-15T16:19:42.623Z,6.53
2022-11-15T16:22:48.987Z,6.56
2022-11-15T16:25:55.551Z,6.46
2022-11-15T16:29:01.306Z,6.53
2022-11-15T16:32:06.166Z,6.57
2022-11-15T16:35:15.342Z,6.57
2022-11-15T16:38:18.815Z,6.50
2022-11-15T16:41:22.424Z,6.53
2022-11-15T16:44:25.926Z,6.49
2022-11-15T16:47:30.749Z,6.48
2022-11-15T16:50:41.850Z,6.58
2022-11-15T16:53:45.157Z,6.61
2022-11-15T16:56:48.536Z,6.55
2022-11-15T16:59:51.494Z,6.58
2022-11-15T17:02:57.926Z,6.62
2022-11-15T17:06:03.420Z,6.57
2022-11-15T17:09:12.632Z,6.58
2022-11-15T17:12:20.860Z,6.57
2022-11-15T17:15:26.346Z,6.66
2022-11-15T17:18:34.875Z,6.65
2022-11-15T17:21:41.835Z,6.70
2022-11-15T17:24:56.263Z,6.79
2022-11-15T17:28:03.135Z,6.74
2022-11-15T17:31:14.179Z,6.73
2022-11-15T17:34:20.129Z,6.73
2022-11-15T17:37:27.384Z,6.68
2022-11-15T17:40:34.286Z,6.72
2022-11-15T17:43:40.609Z,6.75
2022-11-15T17:46:48.763Z,6.72
2022-11-15T17:49:57.297Z,6.69
2022-11-15T17:53:04.222Z,6.74
2022-11-15T17:56:13.313Z,6.65
2022-11-15T17:59:21.714Z,6.71
2022-11-15T18:02:28.671Z,6.68
2022-11-15T18:05:34.999Z,6.63
2022-11-15T18:08:40.390Z,6.57
2022-11-15T18:11:47.100Z,6.66
2022-11-15T18:14:53.935Z,6.64
2022-11-15T18:18:01.930Z,6.62
2022-11-15T18:21:21.331Z,6.74
2022-11-15T18:24:27.573Z,6.64
2022-11-15T18:27:32.941Z,6.64
2022-11-15T18:30:43.389Z,6.64
2022-11-15T18:33:47.259Z,6.62
2022-11-15T18:36:55.971Z,6.64
2022-11-15T18:40:05.329Z,6.67
2022-11-15T18:43:12.680Z,6.63
2022-11-15T18:46:20.748Z,6.67
2022-11-15T18:49:27.365Z,6.68
2022-11-15T18:52:34.375Z,6.64
2022-11-15T18:55:45.720Z,6.67
2022-11-15T18:58:55.840Z,6.66
2022-11-15T19:02:01.621Z,6.69
2022-11-15T19:05:05.609Z,6.73
2022-11-15T19:08:11.250Z,6.71
2022-11-15T19:11:18.797Z,6.64
2022-11-15T19:14:27.070Z,6.67
2022-11-15T19:17:32.674Z,6.76
2022-11-15T19:20:42.161Z,6.65
2022-11-15T19:23:49.302Z,6.60
2022-11-15T19:26:57.676Z,6.67
2022-11-15T19:30:07.406Z,6.59
2022-11-15T19:33:15.822Z,6.54
2022-11-15T19:36:27.434Z,6.56
2022-11-15T19:39:34.812Z,6.65
2022-11-15T19:42:43.064Z,6.64
2022-11-15T19:45:54.966Z,6.64
2022-11-15T19:49:04.857Z,6.70
2022-11-15T19:52:09.886Z,6.85
2022-11-15T19:55:14.193Z,6.79
2022-11-15T19:58:19.203Z,6.72
2022-11-15T20:01:27.102Z,6.64
2022-11-15T20:04:34.184Z,6.82
2022-11-15T20:07:38.402Z,6.80
2022-11-15T20:10:45.872Z,6.68
2022-11-15T20:13:51.249Z,6.69
2022-11-15T20:16:57.745Z,6.65
2022-11-15T20:20:02.318Z,6.65
2022-11-15T20:23:07.501Z,6.72
2022-11-15T20:26:13.655Z,6.62
2022-11-15T20:29:22.043Z,6.53
2022-11-15T20:32:28.670Z,6.53
2022-11-15T20:35:35.870Z,6.48
2022-11-15T20:38:41.222Z,6.46
2022-11-15T20:41:48.831Z,6.51
2022-11-15T20:44:56.013Z,6.53
2022-11-15T20:48:04.246Z,6.63
2022-11-15T20:51:16.034Z,6.61
2022-11-15T20:54:25.432Z,6.61
2022-11-15T20:57:31.452Z,6.58
2022-11-15T21:00:44.775Z,6.62
2022-11-15T21:03:49.317Z,6.55
2022-11-15T21:06:53.650Z,6.66
2022-11-15T21:10:17.139Z,6.75
2022-11-15T21:13:24.367Z,6.81
2022-11-15T21:16:29.790Z,6.71
2022-11-15T21:19:36.949Z,6.69
2022-11-15T21:22:44.698Z,6.70
2022-11-15T21:25:53.063Z,6.66
2022-11-15T21:29:01.323Z,6.68
2022-11-15T21:32:07.739Z,6.67
2022-11-15T21:35:13.153Z,6.68
2022-11-15T21:38:19.634Z,6.61
2022-11-15T21:41:26.005Z,6.69
2022-11-15T21:44:33.263Z,6.60
2022-11-15T21:47:41.956Z,6.52
2022-11-15T21:50:56.191Z,6.60
2022-11-15T21:54:04.776Z,6.69
2022-11-15T21:57:12.340Z,6.64
2022-11-15T22:00:39.138Z,6.67
2022-11-15T22:03:47.551Z,6.67
2022-11-15T22:06:54.543Z,6.59
2022-11-15T22:10:01.458Z,6.73
2022-11-15T22:13:08.005Z,6.67
2022-11-15T22:16:16.161Z,6.58
2022-11-15T22:19:22.948Z,6.54
2022-11-15T22:22:28.453Z,6.75
2022-11-15T22:25:33.990Z,6.62
2022-11-15T22:28:40.718Z,6.63
2022-11-15T22:31:46.212Z,6.66
2022-11-15T22:34:52.104Z,6.69
2022-11-15T22:37:56.826Z,6.64
2022-11-15T22:41:01.417Z,6.61
2022-11-15T22:44:06.116Z,6.60
2022-11-15T22:47:14.821Z,6.57
2022-11-15T22:50:25.730Z,6.59
2022-11-15T22:53:33.600Z,6.64
2022-11-15T22:56:38.327Z,6.58
2022-11-15T22:59:49.749Z,6.55
2022-11-15T23:02:56.079Z,6.58
2022-11-15T23:06:06.338Z,6.63
2022-11-15T23:09:11.626Z,6.68
2022-11-15T23:12:37.443Z,6.65
2022-11-15T23:16:26.248Z,6.66
2022-11-15T23:19:52.938Z,6.71
2022-11-15T23:23:18.784Z,6.81
2022-11-15T23:26:44.701Z,6.80
2022-11-15T23:30:08.603Z,6.80
2022-11-15T23:33:36.376Z,6.83
2022-11-15T23:36:43.049Z,6.78
2022-11-15T23:39:54.200Z,6.83
2022-11-15T23:43:00.284Z,6.79
2022-11-15T23:46:08.035Z,6.81
2022-11-15T23:49:13.169Z,6.86
2022-11-15T23:52:17.327Z,6.82
2022-11-15T23:55:21.465Z,6.86
2022-11-15T23:58:26.711Z,6.75
